Time;durP1;ratioP1;P1;durP2;ratioP2;P2;SDS_P1;SDS_P2;PMS_P1;PMS_P2;Temp;Humidity;BMP_temperature;BMP_pressure;BME280_temperature;BME280_humidity;BME280_pressure;Samples;Min_cycle;Max_cycle;Signal;HPM_P1;HPM_P2
2022/10/29 00:01:55;;;;;;;21.60;10.68;;;19.40;92.90;;;19.29;65.48;99449.47;5032350;28;20036;-77
2022/10/29 00:04:22;;;;;;;17.98;10.13;;;19.40;93.00;;;19.29;65.28;99443.19;5068044;28;20458;-77
2022/10/29 00:06:48;;;;;;;21.10;11.07;;;19.40;92.90;;;19.29;66.30;99435.72;5021409;28;20400;-77
2022/10/29 00:09:14;;;;;;;17.70;10.50;;;19.30;93.10;;;19.28;66.28;99431.38;5035030;28;20049;-77
2022/10/29 00:11:40;;;;;;;15.88;9.52;;;19.30;93.20;;;19.28;66.00;99431.38;5036790;28;20117;-77
2022/10/29 00:14:06;;;;;;;15.50;9.18;;;19.30;93.10;;;19.29;65.42;99443.97;5065986;28;20062;-77
2022/10/29 00:16:37;;;;;;;19.38;10.32;;;19.30;93.00;;;19.31;65.19;99435.44;5018108;28;20752;-76
2022/10/29 00:19:04;;;;;;;18.58;9.98;;;19.30;92.90;;;19.30;65.23;99436.53;5050715;28;20037;-77
2022/10/29 00:21:30;;;;;;;18.88;10.13;;;19.30;92.90;;;19.26;65.60;99432.81;5046730;28;20033;-77
2022/10/29 00:23:57;;;;;;;18.25;11.48;;;19.30;93.00;;;19.27;66.17;99437.19;5038095;28;20435;-77
2022/10/29 00:26:23;;;;;;;17.20;10.35;;;19.30;93.10;;;19.29;66.12;99435.72;5021283;28;20075;-76
2022/10/29 00:28:53;;;;;;;21.10;10.45;;;19.30;93.20;;;19.28;65.62;99436.88;5052387;28;20412;-77
2022/10/29 00:31:22;;;;;;;17.38;9.38;;;19.30;93.10;;;19.28;65.43;99430.53;5043908;28;20067;-76
2022/10/29 00:33:50;;;;;;;15.82;9.90;;;19.30;93.00;;;19.23;65.36;99438.91;5034076;28;20036;-76
2022/10/29 00:36:18;;;;;;;15.63;8.18;;;19.30;92.90;;;19.26;65.46;99438.31;5051596;28;20049;-76
2022/10/29 00:38:44;;;;;;;15.98;9.02;;;19.30;92.90;;;19.26;66.18;99441.06;5016500;28;20041;-76
2022/10/29 00:41:12;;;;;;;14.25;8.82;;;19.30;93.10;;;19.24;66.36;99435.06;5045394;28;20095;-76
2022/10/29 00:43:42;;;;;;;16.45;9.23;;;19.30;93.10;;;19.24;66.39;99440.56;5019771;28;20037;-76
2022/10/29 00:46:15;;;;;;;15.68;8.82;;;19.30;93.20;;;19.25;65.55;99437.47;5038973;28;20039;-76
2022/10/29 00:48:48;;;;;;;16.00;9.45;;;19.30;93.00;;;19.25;65.45;99442.19;5064573;28;20057;-76
2022/10/29 00:51:15;;;;;;;15.32;8.02;;;19.30;92.90;;;19.24;65.27;99440.56;5045560;28;20043;-76
2022/10/29 00:53:51;;;;;;;18.52;9.57;;;19.30;93.30;;;19.21;65.90;99439.25;5048575;28;20040;-76
2022/10/29 00:56:17;;;;;;;17.77;9.85;;;19.30;93.00;;;19.26;66.03;99438.31;5038673;28;20041;-76
2022/10/29 00:58:43;;;;;;;15.57;8.55;;;19.30;93.10;;;19.25;66.34;99426.47;5023481;28;20573;-76
2022/10/29 01:01:09;;;;;;;16.15;9.65;;;19.30;93.20;;;19.23;65.72;99427.91;5014268;28;20029;-76
2022/10/29 01:03:35;;;;;;;16.10;10.00;;;19.30;93.10;;;19.23;65.36;99427.91;5066030;28;20045;-76
2022/10/29 01:06:01;;;;;;;17.45;8.63;;;19.30;92.90;;;19.24;65.18;99430.38;5053425;28;20049;-76
2022/10/29 01:08:27;;;;;;;17.75;9.43;;;19.30;92.80;;;19.24;65.10;99426.81;5034619;28;20132;-76
2022/10/29 01:10:57;;;;;;;18.45;9.48;;;19.30;92.90;;;19.21;66.08;99428.25;5066860;28;20396;-76
2022/10/29 01:13:54;;;;;;;14.68;9.23;;;19.30;93.10;;;19.24;66.25;99429.56;5047680;28;20041;-76
2022/10/29 01:16:53;;;;;;;14.43;8.98;;;19.30;93.20;;;19.22;65.82;99415.31;5039903;28;20115;-76
2022/10/29 01:20:13;;;;;;;12.50;8.27;;;19.30;93.10;;;19.21;65.23;99420.00;5061940;28;20069;-76
2022/10/29 01:23:29;;;;;;;13.63;8.40;;;19.30;92.90;;;19.20;65.37;99407.38;5029611;28;20045;-76
2022/10/29 01:26:22;;;;;;;17.20;9.07;;;19.30;92.90;;;19.16;66.08;99400.06;5017299;28;20062;-76
2022/10/29 01:28:54;;;;;;;16.50;8.85;;;19.30;93.00;;;19.19;66.54;99408.50;5064642;28;20041;-76
2022/10/29 01:31:54;;;;;;;;;;;19.30;93.20;;;19.22;66.38;99409.81;5063488;28;20408;-76
2022/10/29 01:35:12;;;;;;;14.02;8.48;;;19.20;93.10;;;19.20;65.21;99401.88;5051008;28;19924;-76
2022/10/29 01:38:21;;;;;;;15.73;9.23;;;19.30;92.90;;;19.16;65.32;99400.06;5047082;28;20372;-76
2022/10/29 01:40:56;;;;;;;12.70;8.05;;;19.20;92.90;;;19.19;65.18;99405.75;5041375;28;20107;-75
2022/10/29 01:43:37;;;;;;;11.57;7.47;;;19.20;92.90;;;19.16;66.20;99400.06;5061877;28;20733;-76
2022/10/29 01:46:18;;;;;;;15.27;7.80;;;19.20;93.10;;;19.19;66.54;99394.75;5033737;28;20060;-75
2022/10/29 01:48:47;;;;;;;14.40;8.93;;;19.20;93.20;;;19.17;66.20;99390.69;5061530;28;20067;-75
2022/10/29 01:51:24;;;;;;;14.00;8.48;;;19.20;93.10;;;19.18;65.41;99397.81;5034236;28;20067;-75
2022/10/29 01:53:50;;;;;;;14.27;8.43;;;19.20;93.00;;;19.17;65.44;99388.75;5029778;28;20040;-75
2022/10/29 01:56:16;;;;;;;10.05;6.93;;;19.20;92.90;;;19.16;65.01;99378.88;5022552;28;20048;-76
2022/10/29 01:58:47;;;;;;;14.25;8.45;;;19.20;92.80;;;19.15;65.55;99377.25;5049608;28;20036;-76
2022/10/29 02:01:28;;;;;;;13.65;8.38;;;19.20;93.00;;;19.12;66.71;99377.88;5053536;28;20040;-76
2022/10/29 02:04:15;;;;;;;13.40;8.07;;;19.20;93.20;;;19.15;66.49;99381.94;5046519;28;20443;-76
2022/10/29 02:07:05;;;;;;;17.35;7.72;;;19.20;93.10;;;19.16;65.50;99384.38;5059818;28;20453;-76
2022/10/29 02:10:22;;;;;;;13.40;7.30;;;19.20;93.00;;;19.11;65.55;99379.03;5060209;28;20106;-76
2022/10/29 02:12:50;;;;;;;10.00;7.88;;;19.20;92.90;;;19.14;65.23;99369.34;5059386;28;20056;-76
2022/10/29 02:15:21;;;;;;;12.90;7.47;;;19.20;92.90;;;19.12;66.11;99372.38;5049874;28;20426;-76
2022/10/29 02:17:47;;;;;;;14.23;7.87;;;19.20;93.00;;;19.10;66.69;99369.13;5045658;28;20079;-75
2022/10/29 02:20:14;;;;;;;18.08;7.57;;;19.20;93.10;;;19.13;66.46;99367.69;5049123;28;20037;-76
2022/10/29 02:22:40;;;;;;;9.52;6.68;;;19.20;93.20;;;19.13;65.55;99359.44;5033922;28;20075;-76
2022/10/29 02:25:07;;;;;;;11.20;7.43;;;19.20;93.00;;;19.14;65.22;99356.41;5059322;28;20045;-76
2022/10/29 02:27:33;;;;;;;11.48;6.80;;;19.20;92.90;;;19.10;65.37;99366.38;5038065;28;20037;-76
2022/10/29 02:29:59;;;;;;;12.68;7.43;;;19.20;92.90;;;19.11;65.30;99365.28;5032229;28;20522;-76
2022/10/29 02:32:25;;;;;;;10.25;5.85;;;19.20;92.90;;;19.11;66.30;99370.78;5046181;28;20040;-76
2022/10/29 02:34:51;;;;;;;9.43;6.40;;;19.20;93.10;;;19.15;65.98;99368.19;5044283;28;20045;-76
2022/10/29 02:37:17;;;;;;;16.48;8.13;;;19.20;93.10;;;19.15;66.04;99376.44;5032147;28;20033;-76
2022/10/29 02:39:43;;;;;;;10.63;6.55;;;19.20;93.10;;;19.15;65.34;99376.44;5033871;28;20381;-75
2022/10/29 02:42:09;;;;;;;10.45;7.55;;;19.20;93.00;;;19.12;65.18;99377.88;5055279;28;20043;-76
2022/10/29 02:44:36;;;;;;;15.07;8.23;;;19.20;92.90;;;19.16;65.17;99376.13;5031465;28;20128;-76
2022/10/29 02:47:02;;;;;;;11.38;6.18;;;19.20;92.90;;;19.11;65.85;99364.44;5047328;28;20047;-76
2022/10/29 02:49:28;;;;;;;12.20;6.78;;;19.10;93.00;;;19.12;65.99;99363.34;5031029;28;20045;-76
2022/10/29 02:51:54;;;;;;;12.80;7.05;;;19.20;93.10;;;19.12;66.09;99353.16;5049043;28;20048;-76
2022/10/29 02:54:20;;;;;;;13.05;6.97;;;19.20;93.50;;;19.12;65.62;99350.38;5015406;28;20124;-76
2022/10/29 02:56:46;;;;;;;9.68;6.72;;;19.20;93.00;;;19.11;65.36;99359.78;5015199;28;20044;-76
2022/10/29 02:59:12;;;;;;;9.25;7.32;;;19.20;93.00;;;19.13;65.27;99363.00;5013730;28;20106;-76
2022/10/29 03:01:38;;;;;;;10.02;6.57;;;19.20;92.90;;;19.11;65.11;99357.03;5026092;28;20037;-76
2022/10/29 03:04:04;;;;;;;8.88;6.20;;;19.20;92.90;;;19.07;65.83;99350.53;5013735;28;20099;-76
2022/10/29 03:06:30;;;;;;;8.48;6.20;;;19.20;93.00;;;19.09;66.03;99362.03;5030542;28;20037;-76
2022/10/29 03:08:56;;;;;;;11.80;7.63;;;19.20;93.10;;;19.11;66.09;99359.78;5048151;28;20033;-76
2022/10/29 03:11:22;;;;;;;14.38;7.07;;;19.20;93.10;;;19.10;65.45;99352.63;5014858;28;20915;-76
2022/10/29 03:13:48;;;;;;;12.43;6.75;;;19.10;92.90;;;19.12;65.11;99360.59;5047046;28;20080;-76
2022/10/29 03:16:14;;;;;;;9.45;7.03;;;19.20;92.90;;;19.12;65.09;99355.09;5048702;28;20076;-76
2022/10/29 03:18:40;;;;;;;10.93;6.45;;;19.20;92.80;;;19.11;64.94;99354.28;5049236;28;20151;-76
2022/10/29 03:21:06;;;;;;;8.70;5.70;;;19.10;92.80;;;19.12;65.46;99357.84;5028497;28;20045;-76
2022/10/29 03:23:32;;;;;;;9.85;6.90;;;19.10;93.00;;;19.05;66.15;99364.59;5035100;28;20530;-76
2022/10/29 03:25:58;;;;;;;9.77;5.55;;;19.20;93.00;;;19.07;65.88;99356.84;5035721;28;20037;-76
2022/10/29 03:28:26;;;;;;;9.65;6.80;;;19.20;93.00;;;19.08;65.34;99349.38;5035166;28;20071;-76
2022/10/29 03:30:52;;;;;;;9.70;5.85;;;19.10;92.90;;;19.09;65.19;99346.34;5050218;28;20096;-76
2022/10/29 03:33:18;;;;;;;15.00;6.88;;;19.20;92.80;;;19.08;65.15;99341.13;5034438;28;20081;-76
2022/10/29 03:35:44;;;;;;;10.00;6.18;;;19.20;92.80;;;19.07;65.34;99343.09;5022923;28;20128;-76
2022/10/29 03:38:10;;;;;;;12.75;6.63;;;19.10;92.90;;;19.08;65.77;99346.63;5042421;28;20403;-76
2022/10/29 03:40:39;;;;;;;10.95;6.70;;;19.10;93.00;;;19.11;65.44;99348.78;5051452;28;20059;-76
2022/10/29 03:43:05;;;;;;;9.63;6.57;;;19.20;93.00;;;19.08;65.27;99344.72;5035025;28;20049;-76
2022/10/29 03:45:31;;;;;;;9.07;5.60;;;19.10;92.90;;;19.10;64.95;99330.66;5037453;28;20037;-76
2022/10/29 03:47:57;;;;;;;8.90;5.80;;;19.20;92.80;;;19.11;64.69;99343.28;5037383;28;20056;-76
2022/10/29 03:50:23;;;;;;;7.88;5.72;;;19.20;92.80;;;19.11;64.65;99335.03;5037537;28;20052;-76
2022/10/29 03:52:50;;;;;;;10.88;6.30;;;19.10;92.80;;;19.11;64.63;99331.44;5051093;28;20043;-75
2022/10/29 03:55:15;;;;;;;6.63;5.47;;;19.20;92.80;;;19.10;63.49;99338.88;5047544;28;20068;-76
2022/10/29 03:57:42;;;;;;;14.35;6.43;;;19.20;92.50;;;19.11;63.14;99340.53;5024807;28;20047;-75
2022/10/29 04:00:09;;;;;;;9.52;6.70;;;19.20;92.30;;;19.08;62.89;99350.22;5037216;28;20076;-75
2022/10/29 04:02:35;;;;;;;7.00;5.05;;;19.20;92.20;;;19.12;63.12;99369.63;5062091;28;20050;-75
2022/10/29 04:05:01;;;;;;;8.10;5.57;;;19.20;92.40;;;19.11;64.22;99359.78;5049027;28;20054;-75
2022/10/29 04:07:27;;;;;;;10.48;5.60;;;19.20;92.70;;;19.09;64.49;99356.53;5048030;28;20047;-75
2022/10/29 04:09:53;;;;;;;11.02;5.72;;;19.20;92.70;;;19.11;63.31;99354.28;5037936;28;20044;-76
2022/10/29 04:12:19;;;;;;;8.25;5.55;;;19.20;92.40;;;19.08;62.83;99349.38;5033057;28;20040;-75
2022/10/29 04:14:45;;;;;;;6.35;5.00;;;19.20;92.20;;;19.07;62.58;99354.09;5046726;28;20048;-76
2022/10/29 04:17:11;;;;;;;7.55;5.07;;;19.20;92.20;;;19.10;62.35;99355.38;5051173;28;20468;-75
2022/10/29 04:19:38;;;;;;;8.00;4.85;;;19.10;92.20;;;19.09;63.38;99359.28;5024126;28;20674;-75
2022/10/29 04:22:04;;;;;;;5.75;5.00;;;19.10;92.50;;;19.11;63.59;99357.03;5049620;28;20037;-75
2022/10/29 04:24:30;;;;;;;6.22;4.90;;;19.20;92.70;;;19.07;63.78;99359.59;5046398;28;20044;-75
2022/10/29 04:26:56;;;;;;;7.80;4.68;;;19.20;92.70;;;19.08;62.52;99350.22;5064372;28;20036;-75
2022/10/29 04:29:22;;;;;;;10.05;5.65;;;19.20;92.20;;;19.06;62.33;99344.22;5049877;28;20452;-75
2022/10/29 04:31:48;;;;;;;7.97;4.80;;;19.20;92.20;;;19.03;62.09;99350.38;5047935;28;20337;-75
2022/10/29 04:34:14;;;;;;;8.18;5.32;;;19.10;92.20;;;19.11;61.90;99356.19;5032472;28;20048;-75
2022/10/29 04:36:40;;;;;;;7.40;4.57;;;19.10;92.60;;;19.07;63.30;99353.28;5050410;28;20054;-75
2022/10/29 04:39:07;;;;;;;10.40;5.82;;;19.10;92.60;;;19.07;63.75;99337.59;5065254;28;20037;-75
2022/10/29 04:41:33;;;;;;;9.73;4.90;;;19.10;92.60;;;19.07;63.16;99334.03;5048032;28;20123;-75
2022/10/29 04:44:00;;;;;;;5.65;4.32;;;19.10;92.40;;;19.06;61.96;99337.94;5032812;28;20048;-76
2022/10/29 04:46:26;;;;;;;4.47;3.97;;;19.10;92.20;;;19.07;61.97;99336.78;5037851;28;20531;-76
2022/10/29 04:48:52;;;;;;;7.35;4.53;;;19.10;92.20;;;19.12;61.53;99342.13;5021147;28;20052;-75
2022/10/29 04:51:23;;;;;;;6.45;4.57;;;19.10;92.20;;;19.08;61.92;99343.88;5062927;28;20036;-75
2022/10/29 04:53:49;;;;;;;5.43;4.20;;;19.10;92.20;;;19.07;62.56;99342.28;5052063;28;20044;-75
2022/10/29 04:56:16;;;;;;;6.63;4.90;;;19.10;92.40;;;19.05;62.85;99348.09;5061529;28;20482;-75
2022/10/29 04:58:42;;;;;;;5.45;4.70;;;19.10;92.40;;;19.05;62.09;99337.09;5032691;28;20045;-75
2022/10/29 05:01:08;;;;;;;5.45;4.47;;;19.10;92.20;;;19.07;61.73;99342.28;5008123;28;20086;-75
2022/10/29 05:03:34;;;;;;;4.22;3.65;;;19.10;92.10;;;19.08;61.42;99344.72;5062157;28;20056;-76
2022/10/29 05:06:04;;;;;;;7.00;4.32;;;19.10;92.10;;;19.09;61.20;99348.28;5048903;28;20047;-75
2022/10/29 05:08:30;;;;;;;7.22;4.35;;;19.10;92.10;;;19.07;62.20;99350.53;5031859;28;20082;-75
2022/10/29 05:10:56;;;;;;;6.32;4.25;;;19.10;92.40;;;19.05;62.49;99355.53;5034633;28;20041;-75
2022/10/29 05:13:22;;;;;;;5.20;4.65;;;19.10;92.40;;;19.03;62.42;99347.63;5048386;28;20093;-75
2022/10/29 05:15:50;;;;;;;5.80;4.13;;;19.10;92.30;;;19.04;61.46;99345.66;5023797;28;20131;-77
2022/10/29 05:18:16;;;;;;;7.43;4.05;;;19.10;92.10;;;19.08;61.17;99339.22;5055226;28;20045;-76
2022/10/29 05:20:42;;;;;;;4.80;3.70;;;19.10;92.10;;;19.09;60.79;99345.53;5036050;28;20138;-75
2022/10/29 05:23:09;;;;;;;5.80;3.95;;;19.00;92.10;;;19.07;60.85;99334.03;5021331;28;20528;-75
2022/10/29 05:25:38;;;;;;;5.68;3.80;;;19.00;92.10;;;19.06;61.77;99330.47;5049862;28;20041;-75
2022/10/29 05:28:17;;;;;;;4.90;3.78;;;19.10;92.40;;;19.06;62.29;99324.19;5049612;28;20044;-75
2022/10/29 05:30:44;;;;;;;4.78;3.70;;;19.10;92.30;;;19.04;61.54;99305.22;5062512;28;20476;-76
2022/10/29 05:33:12;;;;;;;6.63;4.03;;;19.10;92.20;;;19.02;61.17;99312.19;5029484;28;20040;-76
2022/10/29 05:35:38;;;;;;;5.75;4.25;;;19.10;92.10;;;19.04;61.19;99335.47;5046232;28;20040;-77
2022/10/29 05:38:04;;;;;;;4.80;3.65;;;19.00;92.10;;;19.04;60.77;99335.47;5063615;28;20407;-77
2022/10/29 05:40:30;;;;;;;3.85;3.53;;;19.00;92.00;;;19.04;61.22;99338.22;5035791;28;20044;-77
2022/10/29 05:42:56;;;;;;;6.90;3.65;;;19.00;92.10;;;19.05;62.03;99347.28;5031604;28;20449;-77
2022/10/29 05:45:22;;;;;;;4.03;3.63;;;19.10;92.20;;;19.05;62.19;99350.84;5028859;28;20086;-76
2022/10/29 05:47:55;;;;;;;5.80;4.57;;;19.10;92.20;;;19.03;61.24;99347.63;5031617;28;20044;-77
2022/10/29 05:50:21;;;;;;;3.72;3.40;;;19.10;91.90;;;19.06;61.00;99365.41;5033129;28;20059;-77
2022/10/29 05:52:56;;;;;;;4.13;3.72;;;19.10;92.00;;;19.07;61.01;99365.09;5030137;28;20405;-77
2022/10/29 05:55:23;;;;;;;4.85;3.90;;;19.10;92.20;;;19.07;61.03;99369.78;5018312;28;20051;-77
2022/10/29 05:57:49;;;;;;;4.20;3.47;;;19.10;92.10;;;19.06;61.04;99346.16;5049013;28;20411;-77
2022/10/29 06:00:15;;;;;;;6.18;3.72;;;19.10;92.00;;;19.08;60.86;99355.72;5045280;28;20044;-77
2022/10/29 06:02:44;;;;;;;4.10;3.15;;;19.20;92.10;;;19.10;61.04;99352.63;5035619;28;20048;-78
2022/10/29 06:05:11;;;;;;;6.60;3.22;;;19.20;92.10;;;19.08;61.76;99350.22;5014952;28;20063;-78
2022/10/29 06:07:37;;;;;;;4.38;3.58;;;19.20;92.20;;;19.10;62.18;99349.88;5050360;28;20036;-78
2022/10/29 06:10:03;;;;;;;4.60;3.67;;;19.20;92.20;;;19.14;61.39;99348.13;5044426;28;20111;-78
2022/10/29 06:12:32;;;;;;;4.93;3.38;;;19.20;92.20;;;19.11;61.34;99348.78;5024867;28;20442;-78
2022/10/29 06:14:59;;;;;;;5.45;3.22;;;19.20;92.20;;;19.10;61.52;99349.88;5013639;28;20072;-78
2022/10/29 06:17:25;;;;;;;4.82;3.17;;;19.20;92.20;;;19.10;61.40;99341.63;5049351;28;20051;-78
2022/10/29 06:19:51;;;;;;;3.75;2.83;;;19.20;92.10;;;19.05;60.90;99339.03;5061559;28;20131;-78
2022/10/29 06:22:17;;;;;;;5.15;3.72;;;19.10;91.90;;;19.02;60.30;99345.16;5033897;28;20149;-78
2022/10/29 06:24:44;;;;;;;3.65;3.35;;;19.10;91.70;;;19.04;59.96;99348.41;5033366;28;20037;-78
2022/10/29 06:27:10;;;;;;;5.47;3.50;;;19.20;91.60;;;19.01;59.25;99347.13;5056283;28;20045;-79
2022/10/29 06:29:36;;;;;;;3.13;2.83;;;19.20;91.40;;;19.02;58.61;99345.16;5021757;28;20497;-79
2022/10/29 06:32:03;;;;;;;3.53;2.80;;;19.10;91.70;;;19.04;58.29;99343.72;5009709;28;20055;-76
2022/10/29 06:34:29;;;;;;;3.47;2.53;;;19.10;91.30;;;19.06;57.97;99348.91;5046336;28;20566;-76
2022/10/29 06:36:55;;;;;;;6.47;3.92;;;19.10;91.10;;;19.03;57.68;99344.03;5042093;28;20099;-76
2022/10/29 06:39:22;;;;;;;3.83;3.47;;;19.10;91.00;;;19.05;57.41;99348.09;5047132;28;20059;-77
2022/10/29 06:41:49;;;;;;;3.85;3.10;;;19.10;91.00;;;19.07;57.26;99351.34;5063880;28;20336;-77
2022/10/29 06:44:15;;;;;;;3.97;3.35;;;19.10;91.00;;;19.02;57.33;99359.72;5060837;28;20427;-77
2022/10/29 06:46:41;;;;;;;3.92;3.47;;;19.10;90.90;;;18.99;56.97;99370.56;5027447;28;20033;-77
2022/10/29 06:49:07;;;;;;;3.53;3.22;;;19.10;90.90;;;18.97;56.87;99364.56;5031637;28;20614;-77
2022/10/29 06:51:33;;;;;;;4.38;3.22;;;19.10;90.90;;;18.92;56.90;99368.25;5049493;28;20045;-77
2022/10/29 06:54:01;;;;;;;5.88;3.72;;;19.00;90.80;;;19.03;56.40;99366.88;5052723;28;20441;-77
2022/10/29 06:56:27;;;;;;;3.83;2.80;;;19.10;90.90;;;19.02;56.42;99370.72;5051174;28;20040;-77
2022/10/29 06:58:53;;;;;;;4.80;3.53;;;19.00;90.80;;;19.04;56.36;99370.41;5068110;28;20044;-77
2022/10/29 07:01:19;;;;;;;6.50;3.30;;;19.10;90.80;;;19.07;56.15;99378.03;5029754;28;20133;-77
2022/10/29 07:03:45;;;;;;;4.57;4.15;;;19.10;90.70;;;19.02;56.24;99378.97;5044470;28;20576;-77
2022/10/29 07:06:11;;;;;;;4.53;3.45;;;19.10;90.70;;;19.08;56.02;99396.97;5053895;28;20055;-78
2022/10/29 07:08:38;;;;;;;4.70;3.60;;;19.10;90.60;;;19.07;55.84;99389.03;5038529;28;20151;-77
2022/10/29 07:11:04;;;;;;;4.50;3.35;;;19.10;90.60;;;19.04;55.73;99392.41;5052036;28;20573;-77
2022/10/29 07:13:30;;;;;;;6.05;3.60;;;19.10;90.60;;;19.05;55.88;99383.03;5031355;28;20048;-77
2022/10/29 07:15:56;;;;;;;4.32;3.15;;;19.10;90.60;;;19.05;55.77;99388.53;5035963;28;20501;-77
2022/10/29 07:18:22;;;;;;;4.78;3.75;;;19.10;90.60;;;19.06;55.78;99390.16;5056854;28;20044;-78
2022/10/29 07:20:48;;;;;;;5.30;3.80;;;19.10;90.60;;;19.08;55.68;99388.72;5052992;28;20036;-77
2022/10/29 07:23:14;;;;;;;4.47;3.55;;;19.20;90.60;;;19.07;55.70;99389.03;5056895;28;20037;-77
2022/10/29 07:25:41;;;;;;;3.47;2.95;;;19.20;90.60;;;19.05;55.76;99388.53;5070008;28;20041;-76
2022/10/29 07:28:15;;;;;;;7.05;4.05;;;19.20;90.60;;;19.03;55.84;99386.09;5039136;28;20534;-76
2022/10/29 07:30:42;;;;;;;7.10;3.75;;;19.10;90.70;;;19.02;55.79;99387.22;5049783;28;20045;-76
2022/10/29 07:33:09;;;;;;;3.60;3.15;;;19.10;90.60;;;18.98;56.19;99388.16;5067030;28;20488;-76
2022/10/29 07:35:35;;;;;;;4.47;3.20;;;19.10;90.70;;;18.99;56.20;99387.03;5015755;28;20492;-76
2022/10/29 07:38:02;;;;;;;6.70;3.25;;;19.10;90.70;;;18.97;56.39;99400.28;5047156;28;20069;-76
2022/10/29 07:40:28;;;;;;;9.43;3.75;;;19.10;90.70;;;19.03;56.13;99405.34;5049150;28;20068;-76
2022/10/29 07:42:55;;;;;;;6.63;4.35;;;19.20;90.70;;;19.04;55.97;99389.66;5048066;28;20040;-76
2022/10/29 07:45:21;;;;;;;3.10;2.78;;;19.10;90.60;;;19.07;55.95;99402.78;5048285;28;20044;-76
2022/10/29 07:47:47;;;;;;;3.65;2.88;;;19.20;90.70;;;19.04;56.04;99408.91;5062179;28;20050;-76
2022/10/29 07:50:13;;;;;;;4.25;3.42;;;19.20;90.60;;;19.06;55.90;99396.47;5022059;28;20076;-76
2022/10/29 07:52:40;;;;;;;5.25;3.50;;;19.20;90.60;;;19.07;56.00;99408.28;5051597;28;20036;-77
2022/10/29 07:55:07;;;;;;;4.80;3.10;;;19.20;90.70;;;19.06;56.14;99412.16;5053708;28;20436;-77
2022/10/29 07:57:33;;;;;;;5.65;3.17;;;19.20;90.70;;;19.07;56.11;99409.06;5027066;28;20045;-77
2022/10/29 07:59:59;;;;;;;6.25;3.00;;;19.20;90.60;;;19.12;56.18;99413.63;5058486;28;20041;-76
2022/10/29 08:02:25;;;;;;;4.78;3.28;;;19.20;90.60;;;19.13;55.97;99412.50;5019188;28;20043;-77
2022/10/29 08:04:51;;;;;;;4.00;3.00;;;19.20;90.60;;;19.02;56.19;99411.97;5063820;28;20055;-76
2022/10/29 08:07:17;;;;;;;3.58;3.03;;;19.20;90.60;;;19.06;55.99;99412.16;5048774;28;20083;-78
2022/10/29 08:09:43;;;;;;;5.63;2.97;;;19.20;90.70;;;19.04;56.39;99412.47;5042052;28;20053;-78
2022/10/29 08:12:10;;;;;;;4.85;3.00;;;19.20;90.70;;;19.11;56.36;99416.69;5051158;28;20064;-79
2022/10/29 08:14:36;;;;;;;6.03;3.75;;;19.20;90.60;;;19.07;56.16;99419.28;5033135;28;20070;-78
2022/10/29 08:17:02;;;;;;;5.13;3.42;;;19.30;90.70;;;19.11;56.07;99406.53;5062140;28;20052;-78
2022/10/29 08:19:28;;;;;;;3.53;2.60;;;19.30;90.70;;;19.11;56.00;99416.69;5040845;28;20498;-78
2022/10/29 08:21:55;;;;;;;4.35;3.25;;;19.30;90.70;;;19.12;56.24;99416.38;5049370;28;20395;-78
2022/10/29 08:24:21;;;;;;;5.22;3.22;;;19.30;90.80;;;19.07;56.32;99417.31;5009704;28;20042;-78
2022/10/29 08:26:49;;;;;;;3.47;3.15;;;19.30;90.80;;;19.15;56.18;99425.94;5049481;28;20043;-78
2022/10/29 08:29:16;;;;;;;4.60;2.85;;;19.30;90.80;;;19.13;56.25;99420.75;5046450;28;20510;-78
2022/10/29 08:31:41;;;;;;;4.32;3.03;;;19.30;90.80;;;19.11;56.41;99414.78;5049112;28;20045;-78
2022/10/29 08:34:08;;;;;;;5.75;3.28;;;19.30;90.70;;;19.13;56.24;99418.00;5033448;28;20059;-78
2022/10/29 08:36:33;;;;;;;3.83;3.05;;;19.30;90.80;;;19.12;56.50;99418.31;5049828;28;20037;-78
2022/10/29 08:39:00;;;;;;;3.10;2.38;;;19.30;90.80;;;19.16;56.19;99417.38;5034458;28;20033;-78
2022/10/29 08:42:28;;;;;;;6.30;3.17;;;19.30;90.80;;;19.19;56.42;99419.50;5019936;28;20041;-78
2022/10/29 08:45:04;;;;;;;3.67;2.58;;;19.30;90.80;;;19.19;56.24;99413.19;5013405;28;20116;-78
2022/10/29 08:48:11;;;;;;;3.75;2.72;;;19.30;90.80;;;19.19;56.20;99416.75;5063578;28;20052;-78
2022/10/29 08:50:41;;;;;;;4.57;3.22;;;19.40;90.80;;;19.18;56.51;99414.31;5040634;28;20185;-78
2022/10/29 08:53:19;;;;;;;3.35;3.05;;;19.40;90.80;;;19.15;56.59;99417.69;5045069;28;20052;-78
2022/10/29 08:55:45;;;;;;;3.25;2.28;;;19.40;90.80;;;19.18;56.67;99419.81;5033745;28;20580;-78
2022/10/29 08:58:37;;;;;;;4.03;3.30;;;19.40;90.90;;;19.19;56.76;99410.44;5025839;28;20043;-78
2022/10/29 09:01:08;;;;;;;4.95;3.47;;;19.40;90.90;;;19.22;56.73;99418.06;5046821;28;20493;-78
2022/10/29 09:03:34;;;;;;;4.78;2.80;;;19.40;90.90;;;19.19;56.65;99414.00;5046549;28;20075;-78
2022/10/29 09:06:23;;;;;;;4.75;3.15;;;19.40;90.90;;;19.21;56.70;99406.25;5064234;28;20439;-78
2022/10/29 09:09:21;;;;;;;2.65;2.45;;;19.40;90.90;;;19.18;56.91;99414.31;5063923;28;20129;-78
2022/10/29 09:12:06;;;;;;;6.03;3.33;;;19.40;91.00;;;19.21;56.97;99417.25;5047845;28;20135;-78
2022/10/29 09:15:19;;;;;;;3.05;2.50;;;19.40;91.00;;;19.19;57.02;99421.44;5059526;28;20056;-78
2022/10/29 09:18:16;;;;;;;4.32;2.83;;;19.40;91.00;;;19.26;57.03;99414.38;5052038;28;20123;-79
2022/10/29 09:20:58;;;;;;;4.93;2.72;;;19.40;91.00;;;19.30;56.80;99417.28;5048270;28;20097;-79
2022/10/29 09:23:59;;;;;;;4.53;3.40;;;19.50;91.00;;;19.28;57.05;99414.88;5059315;28;20040;-78
2022/10/29 09:26:57;;;;;;;7.05;4.13;;;19.40;91.00;;;19.27;57.12;99413.22;5044403;28;20076;-78
2022/10/29 09:29:45;;;;;;;7.25;3.78;;;19.50;91.00;;;19.33;57.19;99416.66;5049110;28;20230;-78
2022/10/29 09:32:25;;;;;;;5.35;3.15;;;19.50;91.10;;;19.38;56.82;99418.44;5064812;28;20083;-78
2022/10/29 09:34:55;;;;;;;4.63;3.22;;;19.50;91.10;;;19.37;56.92;99419.59;5066076;28;20047;-78
2022/10/29 09:37:36;;;;;;;4.18;2.53;;;19.50;91.10;;;19.37;57.39;99412.16;5017231;28;20076;-78
2022/10/29 09:40:05;;;;;;;3.10;2.55;;;19.60;91.10;;;19.36;57.29;99409.69;5053663;28;20045;-78
2022/10/29 09:42:38;;;;;;;5.13;3.00;;;19.50;91.10;;;19.37;57.29;99406.63;5032364;28;20032;-78
2022/10/29 09:45:09;;;;;;;6.93;2.35;;;19.50;91.10;;;19.37;57.49;99405.84;5044768;28;20108;-78
2022/10/29 09:48:10;;;;;;;4.73;2.47;;;19.50;91.20;;;19.40;57.23;99414.25;5015455;28;20103;-78
2022/10/29 09:50:59;;;;;;;7.03;3.22;;;19.60;91.20;;;19.44;57.41;99407.00;5044412;28;20298;-78
2022/10/29 09:53:25;;;;;;;2.97;2.58;;;19.60;91.20;;;19.44;57.41;99420.75;5059234;28;20044;-79
2022/10/29 09:55:52;;;;;;;4.57;3.10;;;19.60;91.20;;;19.38;57.85;99415.69;5079090;28;20135;-79
2022/10/29 09:58:24;;;;;;;4.55;2.88;;;19.60;91.30;;;19.43;57.64;99421.88;5027691;28;20040;-78
2022/10/29 10:00:51;;;;;;;5.43;2.38;;;19.60;91.30;;;19.48;57.54;99420.91;5040675;28;20060;-79
2022/10/29 10:03:44;;;;;;;3.97;2.97;;;19.60;91.30;;;19.63;57.01;99414.19;5036230;28;20036;-79
2022/10/29 10:06:13;;;;;;;4.22;3.05;;;19.60;91.20;;;19.57;57.10;99415.47;5046955;28;20072;-79
2022/10/29 10:09:06;;;;;;;5.55;2.65;;;19.60;91.20;;;19.69;56.79;99402.75;5031711;28;20048;-78
2022/10/29 10:11:41;;;;;;;3.85;2.50;;;19.70;91.20;;;19.73;56.51;99409.22;5029658;28;20527;-78
2022/10/29 10:14:20;;;;;;;2.75;2.55;;;19.70;91.10;;;19.67;57.04;99398.69;5034802;28;20041;-79
2022/10/29 10:16:55;;;;;;;4.97;2.25;;;19.70;91.10;;;19.68;56.80;99398.34;5034523;28;20047;-77
2022/10/29 10:19:24;;;;;;;4.30;2.40;;;19.80;91.10;;;19.74;56.43;99393.50;5034311;28;20434;-77
2022/10/29 10:21:57;;;;;;;6.35;2.90;;;19.80;91.10;;;19.74;56.44;99388.00;5021993;28;20136;-77
2022/10/29 10:24:33;;;;;;;;;;;19.80;91.00;;;19.82;56.21;99394.66;5043266;28;20094;-77
2022/10/29 10:27:18;;;;;;;7.68;3.60;;;19.90;91.00;;;19.94;55.95;99386.59;5049111;28;19931;-76
2022/10/29 10:30:04;;;;;;;3.67;2.45;;;19.90;91.00;;;19.86;55.71;99390.94;5048948;28;20442;-77
2022/10/29 10:32:31;;;;;;;4.15;3.25;;;19.90;91.00;;;19.79;56.34;99379.59;5054910;28;20047;-77
2022/10/29 10:34:57;;;;;;;2.55;2.35;;;19.90;91.00;;;19.79;56.51;99384.28;5017169;28;20036;-77